createdAt,value
2018-03-20T00:00:11.522Z,69.67
2018-03-20T00:01:11.495Z,69.30
2018-03-20T00:02:11.441Z,69.20
2018-03-20T00:03:11.391Z,68.73
2018-03-20T00:04:11.378Z,68.82
2018-03-20T00:05:11.344Z,68.82
2018-03-20T00:06:11.267Z,68.82
2018-03-20T00:07:11.232Z,68.44
2018-03-20T00:08:11.197Z,68.73
2018-03-20T00:09:11.166Z,68.82
2018-03-20T00:10:11.130Z,68.82
2018-03-20T00:11:11.052Z,68.82
2018-03-20T00:12:11.036Z,68.63
2018-03-20T00:13:10.973Z,68.73
2018-03-20T00:14:10.923Z,68.26
2018-03-20T00:15:10.877Z,67.60
2018-03-20T00:16:10.889Z,67.41
2018-03-20T00:17:10.800Z,67.22
2018-03-20T00:18:10.754Z,67.03
2018-03-20T00:19:10.742Z,67.50
2018-03-20T00:20:10.687Z,67.03
2018-03-20T00:21:11.224Z,67.13
2018-03-20T00:22:11.221Z,66.94
2018-03-20T00:23:10.534Z,66.94
2018-03-20T00:24:10.506Z,67.41
2018-03-20T00:25:10.446Z,67.50
2018-03-20T00:26:10.408Z,67.69
2018-03-20T00:27:10.362Z,68.44
2018-03-20T00:28:10.324Z,68.44
2018-03-20T00:29:10.303Z,68.63
2018-03-20T00:30:10.256Z,68.35
2018-03-20T00:31:10.195Z,67.79
2018-03-20T00:32:10.164Z,67.22
2018-03-20T00:33:10.103Z,66.84
2018-03-20T00:34:10.076Z,66.65
2018-03-20T00:35:10.029Z,66.84
2018-03-20T00:36:10.029Z,66.75
2018-03-20T00:37:09.947Z,66.65
2018-03-20T00:38:09.891Z,66.37
2018-03-20T00:39:09.841Z,66.28
2018-03-20T00:40:09.798Z,66.84
2018-03-20T00:41:09.791Z,66.94
2018-03-20T00:42:09.740Z,66.47
2018-03-20T00:43:09.725Z,66.56
2018-03-20T00:44:09.684Z,66.65
2018-03-20T00:45:09.607Z,67.22
2018-03-20T00:46:09.613Z,67.88
2018-03-20T00:47:09.557Z,68.82
2018-03-20T00:48:09.465Z,70.24
2018-03-20T00:49:09.425Z,70.53
2018-03-20T00:50:09.384Z,71.66
2018-03-20T00:51:09.349Z,72.98
2018-03-20T00:52:09.287Z,73.07
2018-03-20T00:53:09.252Z,73.64
2018-03-20T00:54:09.216Z,74.40
2018-03-20T00:55:09.174Z,74.40
2018-03-20T00:56:09.122Z,74.68
2018-03-20T00:57:09.085Z,75.34
2018-03-20T00:58:09.027Z,75.71
2018-03-20T00:59:09.000Z,76.57
2018-03-20T01:00:09.002Z,77.04
2018-03-20T01:01:08.939Z,77.75
2018-03-20T01:02:08.868Z,77.42
2018-03-20T01:03:08.832Z,78.13
2018-03-20T01:04:08.784Z,78.27
2018-03-20T01:05:08.795Z,79.11
2018-03-20T01:06:08.687Z,79.59
2018-03-20T01:07:08.648Z,80.15
2018-03-20T01:08:08.633Z,80.87
2018-03-20T01:09:08.611Z,81.43
2018-03-20T01:10:08.560Z,81.34
2018-03-20T01:11:08.479Z,81.53
2018-03-20T01:12:08.456Z,81.62
2018-03-20T01:13:08.405Z,80.87
2018-03-20T01:14:08.411Z,81.24
2018-03-20T01:15:08.319Z,80.77
2018-03-20T01:16:08.305Z,80.87
2018-03-20T01:17:08.255Z,81.15
2018-03-20T01:18:08.164Z,81.15
2018-03-20T01:19:08.170Z,81.05
2018-03-20T01:20:08.095Z,81.15
2018-03-20T01:21:08.056Z,81.05
2018-03-20T01:22:08.039Z,81.34
2018-03-20T01:23:07.979Z,81.43
2018-03-20T01:24:07.925Z,81.43
2018-03-20T01:25:07.912Z,81.43
2018-03-20T01:26:07.827Z,81.91
2018-03-20T01:27:07.822Z,81.72
2018-03-20T01:28:07.755Z,81.81
2018-03-20T01:29:07.699Z,82.57
2018-03-20T01:30:07.657Z,82.28
2018-03-20T01:31:07.635Z,82.95
2018-03-20T01:32:07.577Z,82.95
2018-03-20T01:33:07.522Z,83.14
2018-03-20T01:34:07.487Z,83.51
2018-03-20T01:35:07.429Z,83.33
2018-03-20T01:36:07.388Z,83.33
2018-03-20T01:37:07.381Z,83.14
2018-03-20T01:38:07.356Z,82.85
2018-03-20T01:39:07.263Z,82.85
2018-03-20T01:40:07.259Z,83.42
2018-03-20T01:41:07.183Z,84.64
2018-03-20T01:42:07.158Z,85.96
2018-03-20T01:43:07.084Z,87.10
2018-03-20T01:44:07.035Z,87.38
2018-03-20T01:45:07.036Z,86.82
2018-03-20T01:46:07.000Z,86.91
2018-03-20T01:47:06.987Z,86.15
2018-03-20T01:48:06.946Z,84.92
2018-03-20T01:49:06.892Z,83.70
2018-03-20T01:50:06.788Z,82.76
2018-03-20T01:51:06.751Z,82.76
2018-03-20T01:52:06.704Z,82.66
2018-03-20T01:53:06.673Z,82.57
2018-03-20T01:54:06.620Z,82.76
2018-03-20T01:55:06.559Z,81.81
2018-03-20T01:56:06.517Z,81.91
2018-03-20T01:57:06.502Z,82.66
2018-03-20T01:58:06.444Z,82.57
2018-03-20T01:59:06.437Z,82.57
2018-03-20T02:00:06.366Z,82.47
2018-03-20T02:01:06.305Z,83.61
2018-03-20T02:02:06.263Z,83.70
2018-03-20T02:03:06.211Z,83.61
2018-03-20T02:04:06.196Z,83.70
2018-03-20T02:05:06.140Z,82.95
2018-03-20T02:06:06.104Z,84.17
2018-03-20T02:07:06.040Z,84.55
2018-03-20T02:08:05.998Z,84.92
2018-03-20T02:09:05.971Z,85.02
2018-03-20T02:10:05.939Z,85.02
2018-03-20T02:11:05.892Z,84.92
2018-03-20T02:12:05.860Z,84.27
2018-03-20T02:13:05.862Z,83.51
2018-03-20T02:14:05.792Z,82.95
2018-03-20T02:15:05.694Z,82.38
2018-03-20T02:16:05.646Z,82.57
2018-03-20T02:17:05.653Z,82.00
2018-03-20T02:18:05.607Z,82.66
2018-03-20T02:19:05.530Z,82.85
2018-03-20T02:20:05.508Z,83.14
2018-03-20T02:21:05.443Z,83.23
2018-03-20T02:22:05.398Z,83.51
2018-03-20T02:23:05.351Z,83.14
2018-03-20T02:24:05.349Z,82.95
2018-03-20T02:25:05.301Z,82.76
2018-03-20T02:26:05.273Z,82.57
2018-03-20T02:27:05.184Z,83.04
2018-03-20T02:28:05.167Z,83.23
2018-03-20T02:29:05.099Z,83.42
2018-03-20T02:30:05.045Z,83.98
2018-03-20T02:31:05.036Z,84.45
2018-03-20T02:32:04.975Z,84.74
2018-03-20T02:33:04.917Z,84.45
2018-03-20T02:34:04.886Z,84.55
2018-03-20T02:35:04.859Z,84.27
2018-03-20T02:36:04.783Z,84.45
2018-03-20T02:37:04.779Z,84.55
2018-03-20T02:38:04.752Z,84.36
2018-03-20T02:39:04.654Z,84.17
2018-03-20T02:40:04.605Z,83.98
2018-03-20T02:41:04.582Z,84.27
2018-03-20T02:42:04.527Z,84.74
2018-03-20T02:43:04.496Z,84.36
2018-03-20T02:44:04.430Z,84.17
2018-03-20T02:45:04.400Z,84.45
2018-03-20T02:46:04.364Z,84.36
2018-03-20T02:47:04.307Z,84.55
2018-03-20T02:48:04.262Z,84.74
2018-03-20T02:49:04.250Z,84.64
2018-03-20T02:50:04.198Z,85.21
2018-03-20T02:51:04.218Z,85.40
2018-03-20T02:52:04.108Z,85.68
2018-03-20T02:53:04.039Z,85.68
2018-03-20T02:54:04.463Z,85.59
2018-03-20T02:55:03.983Z,85.77
2018-03-20T02:56:03.931Z,85.77
2018-03-20T02:57:03.896Z,85.77
2018-03-20T02:58:03.857Z,85.21
2018-03-20T02:59:03.803Z,84.74
2018-03-20T03:00:03.760Z,84.83
2018-03-20T03:01:03.726Z,84.45
2018-03-20T03:02:03.673Z,84.17
2018-03-20T03:03:03.655Z,84.27
2018-03-20T03:04:03.602Z,84.55
2018-03-20T03:05:03.540Z,84.55
2018-03-20T03:06:03.483Z,84.45
2018-03-20T03:07:03.437Z,84.83
2018-03-20T03:08:03.437Z,84.17
2018-03-20T03:09:03.368Z,84.08
2018-03-20T03:10:03.299Z,84.27
2018-03-20T03:11:03.259Z,83.98
2018-03-20T03:12:03.263Z,83.33
2018-03-20T03:13:03.215Z,83.33
2018-03-20T03:14:03.188Z,83.70
2018-03-20T03:15:03.127Z,83.42
2018-03-20T03:16:03.138Z,82.66
2018-03-20T03:17:03.014Z,82.95
2018-03-20T03:18:02.960Z,83.33
2018-03-20T03:19:02.946Z,83.51
2018-03-20T03:20:02.935Z,83.61
2018-03-20T03:21:02.822Z,84.08
2018-03-20T03:22:02.831Z,84.59
2018-03-20T03:23:02.734Z,84.88
2018-03-20T03:24:02.725Z,85.25
2018-03-20T03:25:02.650Z,85.53
2018-03-20T03:26:02.630Z,86.57
2018-03-20T03:27:02.579Z,86.95
2018-03-20T03:28:02.535Z,87.05
2018-03-20T03:29:02.480Z,87.43
2018-03-20T03:30:02.435Z,87.33
2018-03-20T03:31:02.397Z,87.24
2018-03-20T03:32:02.367Z,86.95
2018-03-20T03:33:02.339Z,86.29
2018-03-20T03:34:02.266Z,86.57
2018-03-20T03:35:02.248Z,86.19
2018-03-20T03:36:02.214Z,86.29
2018-03-20T03:37:02.147Z,86.10
2018-03-20T03:38:02.092Z,85.53
2018-03-20T03:39:02.100Z,85.44
2018-03-20T03:40:02.044Z,85.06
2018-03-20T03:41:01.990Z,83.55
2018-03-20T03:42:01.944Z,82.80
2018-03-20T03:43:01.912Z,82.14
2018-03-20T03:44:01.890Z,81.95
2018-03-20T03:45:01.816Z,81.29
2018-03-20T03:46:01.759Z,80.63
2018-03-20T03:47:01.783Z,79.59
2018-03-20T03:48:01.679Z,78.64
2018-03-20T03:49:01.615Z,79.21
2018-03-20T03:50:01.607Z,78.64
2018-03-20T03:51:01.542Z,78.92
2018-03-20T03:52:01.487Z,79.44
2018-03-20T03:53:01.458Z,80.00
2018-03-20T03:54:01.451Z,79.82
2018-03-20T03:55:01.388Z,80.15
2018-03-20T03:56:01.321Z,80.25
2018-03-20T03:57:01.327Z,80.25
2018-03-20T03:58:01.286Z,80.06
2018-03-20T03:59:01.212Z,80.06
2018-03-20T04:00:01.166Z,80.19
2018-03-20T04:01:01.128Z,79.91
2018-03-20T04:02:01.071Z,78.97
2018-03-20T04:03:01.569Z,78.68
2018-03-20T04:04:00.998Z,79.63
2018-03-20T04:05:00.936Z,79.06
2018-03-20T04:06:00.887Z,78.68
2018-03-20T04:07:00.885Z,78.68
2018-03-20T04:08:00.803Z,79.06
2018-03-20T04:09:00.764Z,79.16
2018-03-20T04:10:00.766Z,79.25
2018-03-20T04:11:00.682Z,79.44
2018-03-20T04:12:00.656Z,79.91
2018-03-20T04:13:00.618Z,80.57
2018-03-20T04:14:00.571Z,80.85
2018-03-20T04:15:00.546Z,80.76
2018-03-20T04:16:00.469Z,80.57
2018-03-20T04:17:00.456Z,80.76
2018-03-20T04:18:01.679Z,80.76
2018-03-20T04:19:01.181Z,80.38
2018-03-20T04:20:00.370Z,80.19
2018-03-20T04:21:00.251Z,79.72
2018-03-20T04:22:00.223Z,79.53
2018-03-20T04:23:00.195Z,80.10
2018-03-20T04:24:00.130Z,80.19
2018-03-20T04:25:00.118Z,80.38
2018-03-20T04:26:00.678Z,80.19
2018-03-20T04:27:00.029Z,80.76
2018-03-20T04:27:59.994Z,81.52
2018-03-20T04:28:59.933Z,81.04
2018-03-20T04:29:59.890Z,81.99
2018-03-20T04:30:59.834Z,82.56
2018-03-20T04:31:59.795Z,82.65
2018-03-20T04:32:59.777Z,83.12
2018-03-20T04:33:59.713Z,83.22
2018-03-20T04:34:59.723Z,83.22
2018-03-20T04:35:59.623Z,83.22
2018-03-20T04:36:59.583Z,83.88
2018-03-20T04:37:59.534Z,84.26
2018-03-20T04:38:59.506Z,85.01
2018-03-20T04:39:59.434Z,84.92
2018-03-20T04:40:59.420Z,85.20
2018-03-20T04:41:59.379Z,85.49
2018-03-20T04:42:59.319Z,84.82
2018-03-20T04:43:59.319Z,84.26
2018-03-20T04:44:59.237Z,83.59
2018-03-20T04:45:59.205Z,83.69
2018-03-20T04:46:59.156Z,83.59
2018-03-20T04:47:59.108Z,83.97
2018-03-20T04:48:59.104Z,84.07
2018-03-20T04:49:59.058Z,83.69
2018-03-20T04:50:58.992Z,82.75
2018-03-20T04:51:58.983Z,83.22
2018-03-20T04:52:58.932Z,83.03
2018-03-20T04:53:58.872Z,83.31
2018-03-20T04:54:58.826Z,84.07
2018-03-20T04:55:58.761Z,83.78
2018-03-20T04:56:58.716Z,84.16
2018-03-20T04:57:58.678Z,83.97
2018-03-20T04:58:58.626Z,84.07
2018-03-20T04:59:58.603Z,84.26
2018-03-20T05:00:58.566Z,84.54
2018-03-20T05:01:58.509Z,84.16
2018-03-20T05:02:58.489Z,83.59
2018-03-20T05:03:58.442Z,83.69
2018-03-20T05:04:58.378Z,83.88
2018-03-20T05:05:58.328Z,83.78
2018-03-20T05:06:58.333Z,83.78
2018-03-20T05:07:58.261Z,83.78
2018-03-20T05:08:58.261Z,83.97
2018-03-20T05:09:58.173Z,84.35
2018-03-20T05:10:58.183Z,84.35
2018-03-20T05:11:58.118Z,84.92
2018-03-20T05:12:58.040Z,84.35
2018-03-20T05:13:58.048Z,85.01
2018-03-20T05:14:57.957Z,85.30
2018-03-20T05:15:57.925Z,85.77
2018-03-20T05:16:57.879Z,85.86
2018-03-20T05:17:57.863Z,86.15
2018-03-20T05:18:57.817Z,86.52
2018-03-20T05:19:57.752Z,87.18
2018-03-20T05:20:57.711Z,87.56
2018-03-20T05:21:57.701Z,87.94
2018-03-20T05:22:57.626Z,87.66
2018-03-20T05:23:57.585Z,88.04
2018-03-20T05:24:57.518Z,87.85
2018-03-20T05:25:57.480Z,87.75
2018-03-20T05:26:57.514Z,88.89
2018-03-20T05:27:57.405Z,89.36
2018-03-20T05:28:57.446Z,90.40
2018-03-20T05:29:57.309Z,92.38
2018-03-20T05:30:57.263Z,94.37
2018-03-20T05:31:57.223Z,95.50
2018-03-20T05:32:57.218Z,96.73
2018-03-20T05:33:57.168Z,98.05
2018-03-20T05:34:57.094Z,99.08
2018-03-20T05:35:57.052Z,99.99
2018-03-20T05:36:57.012Z,99.99
2018-03-20T05:37:56.969Z,99.99
2018-03-20T05:38:56.949Z,99.99
2018-03-20T05:39:56.884Z,99.99
2018-03-20T05:40:56.841Z,99.99
2018-03-20T05:41:56.798Z,99.99
2018-03-20T05:42:56.754Z,99.99
2018-03-20T05:43:56.712Z,99.99
2018-03-20T05:44:56.670Z,99.99
2018-03-20T05:45:56.629Z,99.99
2018-03-20T05:46:56.584Z,99.99
2018-03-20T05:47:56.545Z,99.99
2018-03-20T05:48:56.499Z,99.99
2018-03-20T05:49:56.456Z,99.99
2018-03-20T05:50:56.412Z,99.99
2018-03-20T05:51:56.371Z,99.99
2018-03-20T05:52:56.327Z,99.99
2018-03-20T05:53:56.285Z,99.99
2018-03-20T05:54:56.240Z,99.99
2018-03-20T05:55:56.200Z,99.99
2018-03-20T05:56:56.159Z,99.99
2018-03-20T05:57:56.114Z,99.99
2018-03-20T05:58:56.073Z,99.99
2018-03-20T05:59:56.027Z,99.99
2018-03-20T06:00:55.984Z,99.99
2018-03-20T06:01:55.951Z,99.99
2018-03-20T06:02:55.899Z,99.99
2018-03-20T06:03:55.855Z,99.99
2018-03-20T06:04:55.839Z,99.99
2018-03-20T06:05:55.769Z,99.99
2018-03-20T06:06:55.729Z,99.99
2018-03-20T06:07:55.685Z,99.99
2018-03-20T06:08:55.642Z,99.99
2018-03-20T06:09:55.601Z,99.99
2018-03-20T06:10:55.555Z,99.99
2018-03-20T06:11:55.514Z,99.99
2018-03-20T06:12:55.470Z,99.99
2018-03-20T06:13:55.427Z,99.99
2018-03-20T06:14:55.381Z,99.99
2018-03-20T06:15:55.339Z,99.99
2018-03-20T06:16:55.298Z,99.99
2018-03-20T06:17:55.257Z,99.99
2018-03-20T06:18:55.213Z,99.99
2018-03-20T06:19:55.171Z,99.99
2018-03-20T06:20:55.127Z,99.99
2018-03-20T06:21:55.139Z,99.99
2018-03-20T06:22:55.039Z,99.99
2018-03-20T06:23:54.996Z,99.99
2018-03-20T06:24:54.958Z,99.99
2018-03-20T06:25:54.913Z,99.99
2018-03-20T06:26:54.868Z,99.99
2018-03-20T06:27:54.866Z,99.99
2018-03-20T06:28:54.783Z,99.99
2018-03-20T06:29:54.740Z,99.99
2018-03-20T06:30:54.698Z,99.99
2018-03-20T06:31:54.648Z,99.99
2018-03-20T06:32:54.623Z,99.99
2018-03-20T06:33:54.571Z,99.99
2018-03-20T06:34:54.524Z,99.99
2018-03-20T06:35:54.482Z,99.99
2018-03-20T06:36:54.448Z,99.99
2018-03-20T06:37:54.432Z,99.99
2018-03-20T06:38:54.358Z,99.99
2018-03-20T06:39:54.311Z,99.99
2018-03-20T06:40:54.275Z,99.99
2018-03-20T06:41:54.227Z,99.99
2018-03-20T06:42:54.186Z,99.99
2018-03-20T06:43:54.140Z,99.99
2018-03-20T06:44:54.098Z,99.99
2018-03-20T06:45:54.054Z,99.99
2018-03-20T06:46:54.011Z,99.99
2018-03-20T06:47:53.975Z,99.99
2018-03-20T06:48:53.929Z,99.99
2018-03-20T06:49:53.886Z,99.99
2018-03-20T06:50:53.844Z,99.99
2018-03-20T06:51:53.794Z,99.99
2018-03-20T06:52:53.756Z,99.99
2018-03-20T06:53:53.717Z,99.99
2018-03-20T06:54:53.673Z,99.99
2018-03-20T06:55:53.935Z,99.99
2018-03-20T06:56:53.588Z,99.99
2018-03-20T06:57:53.545Z,99.99
2018-03-20T06:58:53.502Z,99.99
2018-03-20T06:59:53.458Z,99.99
2018-03-20T07:00:53.419Z,99.99
2018-03-20T07:01:53.375Z,99.99
2018-03-20T07:02:53.333Z,99.99
2018-03-20T07:03:53.289Z,99.99
2018-03-20T07:04:53.256Z,99.99
2018-03-20T07:05:53.203Z,99.99
2018-03-20T07:06:53.160Z,99.99
2018-03-20T07:07:53.119Z,99.99
2018-03-20T07:08:53.076Z,99.99
2018-03-20T07:09:53.035Z,99.99
2018-03-20T07:10:52.993Z,99.99
2018-03-20T07:11:52.949Z,99.99
2018-03-20T07:12:52.908Z,99.99
2018-03-20T07:13:52.866Z,99.99
2018-03-20T07:14:52.822Z,99.99
2018-03-20T07:15:52.781Z,99.99
2018-03-20T07:16:52.740Z,99.99
2018-03-20T07:17:52.700Z,99.99
2018-03-20T07:18:52.664Z,99.99
2018-03-20T07:19:52.609Z,99.99
2018-03-20T07:20:52.567Z,99.99
2018-03-20T07:21:52.526Z,99.99
2018-03-20T07:22:52.534Z,99.99
2018-03-20T07:23:52.438Z,99.99
2018-03-20T07:24:52.396Z,99.99
2018-03-20T07:25:52.357Z,99.99
2018-03-20T07:26:52.310Z,99.99
2018-03-20T07:27:52.271Z,99.99
2018-03-20T07:28:52.237Z,99.99
2018-03-20T07:29:52.187Z,99.99
2018-03-20T07:30:52.143Z,99.99
2018-03-20T07:31:52.102Z,99.99
2018-03-20T07:32:52.060Z,99.99
2018-03-20T07:33:52.019Z,99.99
2018-03-20T07:34:51.975Z,99.99
2018-03-20T07:35:51.935Z,99.99
2018-03-20T07:36:51.889Z,99.99
2018-03-20T07:37:51.848Z,99.99
2018-03-20T07:38:51.805Z,99.99
2018-03-20T07:39:51.772Z,99.99
2018-03-20T07:40:51.722Z,99.99
2018-03-20T07:41:51.680Z,99.99
2018-03-20T07:42:51.636Z,99.99
2018-03-20T07:43:51.592Z,99.99
2018-03-20T07:44:51.553Z,99.99
2018-03-20T07:45:51.512Z,99.99
2018-03-20T07:46:51.471Z,99.99
2018-03-20T07:47:51.426Z,99.99
2018-03-20T07:48:51.388Z,99.99
2018-03-20T07:49:51.344Z,99.99
2018-03-20T07:50:51.303Z,99.99
2018-03-20T07:51:51.258Z,99.99
2018-03-20T07:52:51.218Z,99.99
2018-03-20T07:53:51.174Z,99.99
2018-03-20T07:54:51.133Z,99.99
2018-03-20T07:55:51.089Z,99.99
2018-03-20T07:56:51.049Z,99.99
2018-03-20T07:57:51.008Z,99.99
2018-03-20T07:58:50.967Z,99.99
2018-03-20T07:59:50.926Z,99.99
2018-03-20T08:00:50.886Z,99.99
2018-03-20T08:01:50.847Z,99.99
2018-03-20T08:02:50.800Z,99.99
2018-03-20T08:03:50.763Z,99.99
2018-03-20T08:04:50.722Z,99.99
2018-03-20T08:05:50.701Z,99.99
2018-03-20T08:06:50.643Z,99.99
2018-03-20T08:07:50.659Z,99.99
2018-03-20T08:08:50.553Z,99.99
2018-03-20T08:09:50.510Z,99.99
2018-03-20T08:10:50.470Z,99.99
2018-03-20T08:11:50.429Z,99.99
2018-03-20T08:12:50.387Z,99.99
2018-03-20T08:13:50.349Z,99.99
2018-03-20T08:14:50.302Z,99.99
2018-03-20T08:15:50.261Z,99.99
2018-03-20T08:16:50.241Z,99.99
2018-03-20T08:17:50.177Z,99.99
2018-03-20T08:18:50.138Z,99.99
2018-03-20T08:19:50.096Z,99.99
2018-03-20T08:20:50.057Z,99.99
2018-03-20T08:21:50.016Z,99.99
2018-03-20T08:22:49.973Z,99.99
2018-03-20T08:23:49.932Z,99.99
2018-03-20T08:24:49.891Z,99.99
2018-03-20T08:25:49.851Z,99.99
2018-03-20T08:26:49.804Z,99.99
2018-03-20T08:27:49.768Z,99.99
2018-03-20T08:28:49.729Z,99.99
2018-03-20T08:29:49.686Z,99.99
2018-03-20T08:30:49.651Z,99.99
2018-03-20T08:31:49.605Z,99.99
2018-03-20T08:32:49.580Z,99.99
2018-03-20T08:33:49.525Z,99.99
2018-03-20T08:34:49.485Z,99.99
2018-03-20T08:35:49.445Z,99.99
2018-03-20T08:36:49.430Z,99.99
2018-03-20T08:37:49.363Z,99.99
2018-03-20T08:38:49.320Z,99.99
2018-03-20T08:39:49.282Z,99.99
2018-03-20T08:40:49.244Z,99.99
2018-03-20T08:41:49.202Z,99.99
2018-03-20T08:42:49.159Z,99.99
2018-03-20T08:43:49.118Z,99.99
2018-03-20T08:44:49.079Z,99.99
2018-03-20T08:45:49.042Z,99.99
2018-03-20T08:46:48.994Z,99.99
2018-03-20T08:47:48.955Z,99.99
2018-03-20T08:48:48.914Z,99.99
2018-03-20T08:49:48.883Z,99.99
2018-03-20T08:50:48.845Z,99.99
2018-03-20T08:51:48.794Z,99.99
2018-03-20T08:52:48.754Z,99.99
2018-03-20T08:53:48.716Z,99.99
2018-03-20T08:54:48.671Z,99.99
2018-03-20T08:55:48.633Z,99.99
2018-03-20T08:56:48.592Z,99.99
2018-03-20T08:57:48.551Z,99.99
2018-03-20T08:58:48.508Z,99.99
2018-03-20T08:59:48.471Z,99.99
2018-03-20T09:00:48.429Z,99.99
2018-03-20T09:01:48.393Z,99.99
2018-03-20T09:02:48.353Z,99.99
2018-03-20T09:03:48.305Z,99.99
2018-03-20T09:04:48.267Z,99.99
2018-03-20T09:05:48.227Z,99.99
2018-03-20T09:06:48.185Z,99.99
2018-03-20T09:07:48.146Z,99.99
2018-03-20T09:08:48.107Z,99.99
2018-03-20T09:09:48.064Z,99.99
2018-03-20T09:10:48.023Z,99.99
2018-03-20T09:11:47.983Z,99.99
2018-03-20T09:12:47.945Z,99.99
2018-03-20T09:13:47.896Z,99.99
2018-03-20T09:14:47.857Z,99.99
2018-03-20T09:15:47.825Z,99.99
2018-03-20T09:16:47.779Z,99.99
2018-03-20T09:17:47.741Z,99.99
2018-03-20T09:18:47.708Z,99.99
2018-03-20T09:19:47.655Z,99.99
2018-03-20T09:20:47.613Z,99.99
2018-03-20T09:21:47.578Z,99.99
2018-03-20T09:22:47.538Z,99.99
2018-03-20T09:23:47.495Z,99.99
2018-03-20T09:24:47.452Z,99.99
2018-03-20T09:25:47.418Z,99.99
2018-03-20T09:26:47.372Z,99.99
2018-03-20T09:27:47.331Z,99.99
2018-03-20T09:28:47.290Z,99.99
2018-03-20T09:29:47.254Z,99.99
2018-03-20T09:30:47.209Z,99.99
2018-03-20T09:31:47.172Z,99.99
2018-03-20T09:32:47.132Z,99.99
2018-03-20T09:33:47.091Z,99.99
2018-03-20T09:34:47.051Z,99.99
2018-03-20T09:35:47.071Z,99.99
2018-03-20T09:36:47.015Z,99.99
2018-03-20T09:37:46.933Z,99.99
2018-03-20T09:38:46.895Z,99.99
2018-03-20T09:39:46.852Z,99.99
2018-03-20T09:40:46.815Z,99.99
2018-03-20T09:41:46.775Z,99.99
2018-03-20T09:42:46.737Z,99.99
2018-03-20T09:43:46.742Z,99.99
2018-03-20T09:44:46.665Z,99.99
2018-03-20T09:45:46.621Z,99.99
2018-03-20T09:46:46.583Z,99.99
2018-03-20T09:47:46.543Z,99.99
2018-03-20T09:48:46.505Z,99.99
2018-03-20T09:49:46.468Z,99.99
2018-03-20T09:50:46.424Z,99.99
2018-03-20T09:51:46.394Z,99.99
2018-03-20T09:52:46.360Z,99.99
2018-03-20T09:53:46.317Z,99.99
2018-03-20T09:54:46.281Z,99.99
2018-03-20T09:55:46.244Z,99.99
2018-03-20T09:56:46.208Z,99.99
2018-03-20T09:57:46.175Z,99.99
2018-03-20T09:58:46.138Z,99.99
2018-03-20T09:59:46.107Z,99.99
2018-03-20T10:00:46.070Z,99.99
2018-03-20T10:01:46.034Z,99.97
2018-03-20T10:02:45.996Z,98.74
2018-03-20T10:03:45.964Z,98.26
2018-03-20T10:04:45.934Z,97.79
2018-03-20T10:05:45.896Z,95.22
2018-03-20T10:06:45.863Z,94.22
2018-03-20T10:07:45.832Z,92.56
2018-03-20T10:08:45.798Z,91.32
2018-03-20T10:09:45.765Z,91.22
2018-03-20T10:10:45.732Z,91.22
2018-03-20T10:11:45.706Z,90.89
2018-03-20T10:12:45.664Z,89.89
2018-03-20T10:13:45.636Z,88.61
2018-03-20T10:14:45.601Z,89.00
2018-03-20T10:15:45.569Z,90.84
2018-03-20T10:16:45.543Z,88.75
2018-03-20T10:17:45.507Z,89.47
2018-03-20T10:18:45.473Z,88.99
2018-03-20T10:19:45.451Z,86.61
2018-03-20T10:20:45.410Z,84.61
2018-03-20T10:21:45.381Z,84.80
2018-03-20T10:22:45.352Z,83.85
2018-03-20T10:23:45.313Z,84.13
2018-03-20T10:24:45.296Z,84.61
2018-03-20T10:25:45.250Z,82.28
2018-03-20T10:26:45.220Z,79.33
2018-03-20T10:27:45.188Z,76.48
2018-03-20T10:28:45.156Z,79.14
2018-03-20T10:29:45.126Z,78.10
2018-03-20T10:30:45.091Z,79.43
2018-03-20T10:31:45.058Z,79.72
2018-03-20T10:32:45.030Z,78.86
2018-03-20T10:33:44.995Z,77.05
2018-03-20T10:34:44.964Z,78.25
2018-03-20T10:35:44.949Z,80.19
2018-03-20T10:36:44.901Z,81.37
2018-03-20T10:37:44.870Z,79.32
2018-03-20T10:38:44.837Z,79.32
2018-03-20T10:39:44.859Z,76.71
2018-03-20T10:40:44.776Z,77.00
2018-03-20T10:41:44.746Z,79.66
2018-03-20T10:42:44.710Z,78.04
2018-03-20T10:43:44.676Z,76.75
2018-03-20T10:44:44.645Z,76.37
2018-03-20T10:45:44.614Z,74.65
2018-03-20T10:46:44.583Z,71.61
2018-03-20T10:47:44.551Z,69.70
2018-03-20T10:48:44.524Z,66.21
2018-03-20T10:49:44.489Z,63.64
2018-03-20T10:50:44.457Z,60.52
2018-03-20T10:51:44.426Z,59.16
2018-03-20T10:52:44.395Z,59.99
2018-03-20T10:53:44.381Z,62.30
2018-03-20T10:54:44.335Z,62.62
2018-03-20T10:55:44.308Z,61.42
2018-03-20T10:56:44.276Z,60.40
2018-03-20T10:57:44.248Z,59.64
2018-03-20T10:58:44.219Z,58.78
2018-03-20T10:59:44.190Z,58.30
2018-03-20T11:00:44.160Z,56.81
2018-03-20T11:01:44.130Z,56.11
2018-03-20T11:02:44.103Z,55.16
2018-03-20T11:03:44.075Z,55.16
2018-03-20T11:04:44.046Z,55.85
2018-03-20T11:05:44.023Z,56.65
2018-03-20T11:06:43.987Z,57.24
2018-03-20T11:07:43.959Z,54.45
2018-03-20T11:08:43.931Z,54.52
2018-03-20T11:09:43.901Z,54.71
2018-03-20T11:10:43.875Z,54.43
2018-03-20T11:11:43.845Z,54.17
2018-03-20T11:12:43.816Z,52.90
2018-03-20T11:13:43.790Z,55.44
2018-03-20T11:14:43.762Z,54.33
2018-03-20T11:15:43.733Z,54.14
2018-03-20T11:16:43.702Z,53.21
2018-03-20T11:17:43.675Z,52.42
2018-03-20T11:18:43.655Z,53.21
2018-03-20T11:19:43.621Z,51.43
2018-03-20T11:20:43.592Z,50.12
2018-03-20T11:21:43.558Z,49.40
2018-03-20T11:22:43.530Z,47.39
2018-03-20T11:23:43.506Z,44.34
2018-03-20T11:24:43.484Z,42.33
2018-03-20T11:25:43.448Z,43.00
2018-03-20T11:26:43.418Z,44.58
2018-03-20T11:27:43.393Z,44.94
2018-03-20T11:28:43.366Z,45.70
2018-03-20T11:29:43.335Z,45.72
2018-03-20T11:30:43.310Z,45.77
2018-03-20T11:31:43.285Z,43.12
2018-03-20T11:32:43.256Z,41.78
2018-03-20T11:33:43.234Z,40.25
2018-03-20T11:34:43.201Z,39.27
2018-03-20T11:35:43.174Z,39.64
2018-03-20T11:36:43.149Z,41.75
2018-03-20T11:37:43.131Z,40.40
2018-03-20T11:38:43.095Z,39.96
2018-03-20T11:39:43.072Z,38.45
2018-03-20T11:40:43.047Z,38.07
2018-03-20T11:41:43.032Z,39.43
2018-03-20T11:42:43.002Z,37.34
2018-03-20T11:43:42.975Z,36.67
2018-03-20T11:44:42.948Z,36.55
2018-03-20T11:45:42.926Z,36.86
2018-03-20T11:46:42.905Z,36.59
2018-03-20T11:47:42.874Z,36.32
2018-03-20T11:48:42.851Z,34.87
2018-03-20T11:49:42.826Z,35.65
2018-03-20T11:50:42.801Z,35.08
2018-03-20T11:51:42.778Z,34.77
2018-03-20T11:52:42.755Z,35.14
2018-03-20T11:53:42.991Z,34.72
2018-03-20T11:54:42.706Z,35.94
2018-03-20T11:55:42.682Z,36.79
2018-03-20T11:56:42.661Z,36.98
2018-03-20T11:57:42.632Z,36.14
2018-03-20T11:58:42.605Z,36.82
2018-03-20T11:59:42.584Z,34.91
2018-03-20T12:00:42.557Z,35.49
2018-03-20T12:01:42.533Z,33.32
2018-03-20T12:02:42.509Z,33.61
2018-03-20T12:03:42.485Z,34.20
2018-03-20T12:04:42.461Z,32.47
2018-03-20T12:05:42.438Z,32.17
2018-03-20T12:06:42.413Z,32.42
2018-03-20T12:07:42.386Z,34.13
2018-03-20T12:08:42.377Z,34.20
2018-03-20T12:09:42.329Z,34.40
2018-03-20T12:10:42.331Z,34.70
2018-03-20T12:11:42.286Z,35.77
2018-03-20T12:12:42.265Z,33.89
2018-03-20T12:13:42.236Z,33.04
2018-03-20T12:14:42.210Z,33.24
2018-03-20T12:15:42.185Z,32.28
2018-03-20T12:16:42.160Z,32.18
2018-03-20T12:17:42.137Z,30.84
2018-03-20T12:18:42.111Z,31.64
2018-03-20T12:19:42.089Z,30.67
2018-03-20T12:20:42.062Z,30.58
2018-03-20T12:21:42.041Z,29.53
2018-03-20T12:22:42.013Z,28.86
2018-03-20T12:23:41.989Z,27.81
2018-03-20T12:24:41.965Z,26.57
2018-03-20T12:25:41.945Z,27.26
2018-03-20T12:26:41.920Z,27.92
2018-03-20T12:27:41.898Z,26.01
2018-03-20T12:28:41.874Z,25.71
2018-03-20T12:29:41.848Z,26.08
2018-03-20T12:30:41.826Z,26.46
2018-03-20T12:31:41.803Z,27.72
2018-03-20T12:32:41.780Z,27.55
2018-03-20T12:33:41.755Z,27.26
2018-03-20T12:34:41.735Z,28.03
2018-03-20T12:35:41.710Z,28.03
2018-03-20T12:36:41.688Z,27.83
2018-03-20T12:37:41.693Z,27.16
2018-03-20T12:38:41.645Z,25.54
2018-03-20T12:39:41.619Z,25.24
2018-03-20T12:40:41.595Z,24.57
2018-03-20T12:41:41.574Z,25.16
2018-03-20T12:42:41.550Z,25.71
2018-03-20T12:43:41.525Z,26.09
2018-03-20T12:44:41.503Z,27.81
2018-03-20T12:45:41.483Z,26.74
2018-03-20T12:46:41.534Z,26.53
2018-03-20T12:47:41.436Z,26.14
2018-03-20T12:48:41.412Z,24.70
2018-03-20T12:49:41.386Z,26.40
2018-03-20T12:50:41.361Z,27.82
2018-03-20T12:51:41.341Z,29.46